createdAt,value
2022-09-27T00:02:25.622Z,13.00
2022-09-27T00:05:18.271Z,13.10
2022-09-27T00:08:10.497Z,13.10
2022-09-27T00:11:09.605Z,13.10
2022-09-27T00:14:02.290Z,13.20
2022-09-27T00:16:54.502Z,13.30
2022-09-27T00:19:46.672Z,13.30
2022-09-27T00:22:39.017Z,13.20
2022-09-27T00:25:31.145Z,13.10
2022-09-27T00:28:24.173Z,13.10
2022-09-27T00:31:23.645Z,13.20
2022-09-27T00:34:24.595Z,13.20
2022-09-27T00:37:16.698Z,13.30
2022-09-27T00:40:09.246Z,13.20
2022-09-27T00:43:01.460Z,13.20
2022-09-27T00:46:01.320Z,13.20
2022-09-27T00:49:06.515Z,13.00
2022-09-27T00:52:03.872Z,12.90
2022-09-27T00:55:07.213Z,12.90
2022-09-27T00:58:00.041Z,12.90
2022-09-27T01:00:57.473Z,12.90
2022-09-27T01:03:57.152Z,12.90
2022-09-27T01:06:50.062Z,12.90
2022-09-27T01:09:42.499Z,12.90
2022-09-27T01:12:42.926Z,13.00
2022-09-27T01:16:12.457Z,13.00
2022-09-27T01:19:29.671Z,13.10
2022-09-27T01:22:36.505Z,13.10
2022-09-27T01:25:46.676Z,13.00
2022-09-27T01:28:56.998Z,13.00
2022-09-27T01:31:52.001Z,12.90
2022-09-27T01:34:50.355Z,12.90
2022-09-27T01:38:25.675Z,12.90
2022-09-27T01:41:25.917Z,12.90
2022-09-27T01:44:24.108Z,12.90
2022-09-27T01:47:22.336Z,12.80
2022-09-27T01:50:19.424Z,12.80
2022-09-27T01:53:14.620Z,12.80
2022-09-27T01:56:11.414Z,12.80
2022-09-27T01:59:25.633Z,12.80
2022-09-27T02:02:22.298Z,12.80
2022-09-27T02:05:17.989Z,12.80
2022-09-27T02:08:38.913Z,12.80
2022-09-27T02:11:30.955Z,12.70
2022-09-27T02:14:40.059Z,12.70
2022-09-27T02:17:34.936Z,12.70
2022-09-27T02:20:39.086Z,12.70
2022-09-27T02:23:41.942Z,12.70
2022-09-27T02:26:43.097Z,12.60
2022-09-27T02:29:53.321Z,12.40
2022-09-27T02:32:45.791Z,12.00
2022-09-27T02:35:37.944Z,11.70
2022-09-27T02:38:30.356Z,11.40
2022-09-27T02:41:23.700Z,11.20
2022-09-27T02:44:17.677Z,11.00
2022-09-27T02:47:31.377Z,10.90
2022-09-27T02:50:57.810Z,10.90
2022-09-27T02:54:24.106Z,10.70
2022-09-27T02:58:13.484Z,10.70
2022-09-27T03:01:26.518Z,10.70
2022-09-27T03:04:37.416Z,10.70
2022-09-27T03:07:29.772Z,10.60
2022-09-27T03:10:25.469Z,10.50
2022-09-27T03:13:17.643Z,10.50
2022-09-27T03:16:10.185Z,10.60
2022-09-27T03:19:02.335Z,10.60
2022-09-27T03:21:54.530Z,10.60
2022-09-27T03:24:46.886Z,10.60
2022-09-27T03:27:39.069Z,10.60
2022-09-27T03:30:31.436Z,10.60
2022-09-27T03:33:23.893Z,10.50
2022-09-27T03:36:16.218Z,10.40
2022-09-27T03:39:08.463Z,10.30
2022-09-27T03:42:00.659Z,10.30
2022-09-27T03:44:52.867Z,10.20
2022-09-27T03:47:45.005Z,10.20
2022-09-27T03:50:37.245Z,10.20
2022-09-27T03:53:29.475Z,10.30
2022-09-27T03:56:21.601Z,10.30
2022-09-27T03:59:14.664Z,10.20
2022-09-27T04:02:06.928Z,10.30
2022-09-27T04:04:59.090Z,10.40
2022-09-27T04:07:51.258Z,10.60
2022-09-27T04:10:43.484Z,10.70
2022-09-27T04:13:35.653Z,10.90
2022-09-27T04:16:27.848Z,11.10
2022-09-27T04:19:20.089Z,11.20
2022-09-27T04:22:13.687Z,11.30
2022-09-27T04:25:06.507Z,11.30
2022-09-27T04:27:59.148Z,11.20
2022-09-27T04:30:51.390Z,11.30
2022-09-27T04:33:43.586Z,11.40
2022-09-27T04:36:36.511Z,11.40
2022-09-27T04:39:28.769Z,11.50
2022-09-27T04:42:20.928Z,11.60
2022-09-27T04:45:13.302Z,11.70
2022-09-27T04:48:05.464Z,11.70
2022-09-27T04:51:00.590Z,11.80
2022-09-27T04:53:52.747Z,11.80
2022-09-27T04:56:44.940Z,11.80
2022-09-27T04:59:37.150Z,11.70
2022-09-27T05:02:29.655Z,11.80
2022-09-27T05:05:22.046Z,11.80
2022-09-27T05:08:14.448Z,11.70
2022-09-27T05:11:06.580Z,11.60
2022-09-27T05:13:58.743Z,11.60
2022-09-27T05:16:51.049Z,11.60
2022-09-27T05:19:43.249Z,11.70
2022-09-27T05:22:35.433Z,11.70
2022-09-27T05:25:27.721Z,11.70
2022-09-27T05:28:19.875Z,11.70
2022-09-27T05:31:13.286Z,11.80
2022-09-27T05:34:10.781Z,11.90
2022-09-27T05:37:03.050Z,12.00
2022-09-27T05:39:55.275Z,11.90
2022-09-27T05:42:48.143Z,12.10
2022-09-27T05:45:40.366Z,12.10
2022-09-27T05:48:32.580Z,12.00
2022-09-27T05:51:24.821Z,12.20
2022-09-27T05:54:17.047Z,12.10
2022-09-27T05:57:09.278Z,12.10
2022-09-27T06:00:06.789Z,12.10
2022-09-27T06:03:01.406Z,12.00
2022-09-27T06:05:53.875Z,11.90
2022-09-27T06:08:46.050Z,12.10
2022-09-27T06:11:40.656Z,12.20
2022-09-27T06:14:35.340Z,12.10
2022-09-27T06:17:27.503Z,12.20
2022-09-27T06:20:19.830Z,12.00
2022-09-27T06:23:14.681Z,12.00
2022-09-27T06:26:08.104Z,12.00
2022-09-27T06:29:00.260Z,11.90
2022-09-27T06:31:52.395Z,11.80
2022-09-27T06:34:44.532Z,11.80
2022-09-27T06:37:36.689Z,11.80
2022-09-27T06:40:29.242Z,11.90
2022-09-27T06:43:21.812Z,11.80
2022-09-27T06:46:14.114Z,11.90
2022-09-27T06:49:07.593Z,12.00
2022-09-27T06:51:59.941Z,12.00
2022-09-27T06:54:52.147Z,11.80
2022-09-27T06:58:02.613Z,11.80
2022-09-27T07:00:54.953Z,11.70
2022-09-27T07:03:50.700Z,11.70
2022-09-27T07:06:42.845Z,11.70
2022-09-27T07:09:35.023Z,11.70
2022-09-27T07:12:27.508Z,11.70
2022-09-27T07:15:23.327Z,11.80
2022-09-27T07:18:15.466Z,11.70
2022-09-27T07:21:08.818Z,11.80
2022-09-27T07:24:01.043Z,11.90
2022-09-27T07:26:53.212Z,11.90
2022-09-27T07:29:45.341Z,11.90
2022-09-27T07:32:37.803Z,11.90
2022-09-27T07:35:30.277Z,12.10
2022-09-27T07:38:23.053Z,12.10
2022-09-27T07:41:15.672Z,12.10
2022-09-27T07:44:08.346Z,12.20
2022-09-27T07:47:00.495Z,12.10
2022-09-27T07:49:53.160Z,12.20
2022-09-27T07:52:47.191Z,12.10
2022-09-27T07:55:39.906Z,12.20
2022-09-27T07:58:32.435Z,12.20
2022-09-27T08:01:24.827Z,12.20
2022-09-27T08:04:17.001Z,12.30
2022-09-27T08:07:13.711Z,12.40
2022-09-27T08:10:08.519Z,12.40
2022-09-27T08:13:05.101Z,12.50
2022-09-27T08:16:02.247Z,12.60
2022-09-27T08:18:54.469Z,12.60
2022-09-27T08:21:47.997Z,12.70
2022-09-27T08:24:40.868Z,12.60
2022-09-27T08:27:33.004Z,12.70
2022-09-27T08:30:26.222Z,12.80
2022-09-27T08:33:18.460Z,12.90
2022-09-27T08:36:13.688Z,13.00
2022-09-27T08:39:05.857Z,13.10
2022-09-27T08:42:17.606Z,13.00
2022-09-27T08:45:24.662Z,13.10
2022-09-27T08:48:18.696Z,13.10
2022-09-27T08:51:14.083Z,13.20
2022-09-27T08:54:19.069Z,13.30
2022-09-27T08:57:13.831Z,13.30
2022-09-27T09:00:11.299Z,13.30
2022-09-27T09:03:03.639Z,13.30
2022-09-27T09:06:14.388Z,13.30
2022-09-27T09:09:38.290Z,13.40
2022-09-27T09:12:50.154Z,13.60
2022-09-27T09:15:56.067Z,13.60
2022-09-27T09:19:09.390Z,13.60
2022-09-27T09:22:04.297Z,13.50
2022-09-27T09:25:16.688Z,13.50
2022-09-27T09:28:28.562Z,13.70
2022-09-27T09:31:34.022Z,13.70
2022-09-27T09:34:49.004Z,13.60
2022-09-27T09:37:49.011Z,13.60
2022-09-27T09:40:55.467Z,13.70
2022-09-27T09:43:56.220Z,13.80
2022-09-27T09:46:49.902Z,13.90
2022-09-27T09:49:51.552Z,14.00
2022-09-27T09:52:50.069Z,14.10
2022-09-27T09:55:46.159Z,14.10
2022-09-27T09:58:56.623Z,14.10
2022-09-27T10:01:49.171Z,14.10
2022-09-27T10:04:41.369Z,14.20
2022-09-27T10:07:38.712Z,14.40
2022-09-27T10:10:31.356Z,14.30
2022-09-27T10:13:23.537Z,14.20
2022-09-27T10:16:19.491Z,14.20
2022-09-27T10:19:13.740Z,14.10
2022-09-27T10:22:32.667Z,14.10
2022-09-27T10:25:24.887Z,14.10
2022-09-27T10:28:44.690Z,14.20
2022-09-27T10:31:38.498Z,14.10
2022-09-27T10:34:37.381Z,14.00
2022-09-27T10:37:30.264Z,14.00
2022-09-27T10:40:31.519Z,14.00
2022-09-27T10:43:30.138Z,14.10
2022-09-27T10:46:32.796Z,14.00
2022-09-27T10:50:03.583Z,14.10
2022-09-27T10:53:15.451Z,14.30
2022-09-27T10:56:08.395Z,14.30
2022-09-27T10:59:02.779Z,14.40
2022-09-27T11:01:54.992Z,14.50
2022-09-27T11:05:03.529Z,14.60
2022-09-27T11:07:58.327Z,14.70
2022-09-27T11:11:14.455Z,14.70
2022-09-27T11:14:18.814Z,14.70
2022-09-27T11:17:22.218Z,14.60
2022-09-27T11:20:29.282Z,14.60
2022-09-27T11:23:37.693Z,14.50
2022-09-27T11:26:51.047Z,14.50
2022-09-27T11:30:04.880Z,14.60
2022-09-27T11:33:44.589Z,14.60
2022-09-27T11:36:54.572Z,14.60
2022-09-27T11:40:22.432Z,14.70
2022-09-27T11:43:34.952Z,14.80
2022-09-27T11:46:41.661Z,14.70
2022-09-27T11:49:40.176Z,14.70
2022-09-27T11:52:59.779Z,14.70
2022-09-27T11:56:26.928Z,14.70
2022-09-27T11:59:37.712Z,14.70
2022-09-27T12:02:45.549Z,14.70
2022-09-27T12:06:18.971Z,14.80
2022-09-27T12:09:19.616Z,14.70
2022-09-27T12:12:32.012Z,14.80
2022-09-27T12:15:30.236Z,14.90
2022-09-27T12:18:29.388Z,15.00
2022-09-27T12:21:22.488Z,15.00
2022-09-27T12:24:25.051Z,15.20
2022-09-27T12:27:27.719Z,15.20
2022-09-27T12:30:19.893Z,15.20
2022-09-27T12:33:23.849Z,15.30
2022-09-27T12:36:19.459Z,15.40
2022-09-27T12:39:55.676Z,15.60
2022-09-27T12:42:53.370Z,15.70
2022-09-27T12:45:58.413Z,15.80
2022-09-27T12:48:53.351Z,15.90
2022-09-27T12:52:03.867Z,15.80
2022-09-27T12:55:22.234Z,15.70
2022-09-27T12:58:17.177Z,15.60
2022-09-27T13:01:35.299Z,15.60
2022-09-27T13:04:46.737Z,15.40
2022-09-27T13:08:17.800Z,15.30
2022-09-27T13:11:47.504Z,15.20
2022-09-27T13:14:57.665Z,15.30
2022-09-27T13:17:51.868Z,15.30
2022-09-27T13:20:46.362Z,15.40
2022-09-27T13:23:41.144Z,15.50
2022-09-27T13:26:35.908Z,15.60
2022-09-27T13:29:30.467Z,15.60
2022-09-27T13:32:28.438Z,15.60
2022-09-27T13:35:25.668Z,15.70
2022-09-27T13:38:24.460Z,15.80
2022-09-27T13:41:18.463Z,15.80
2022-09-27T13:44:29.516Z,15.90
2022-09-27T13:47:40.054Z,16.00
2022-09-27T13:50:51.975Z,16.10
2022-09-27T13:53:57.299Z,16.00
2022-09-27T13:56:52.028Z,15.50
2022-09-27T13:59:52.706Z,14.90
2022-09-27T14:03:12.938Z,14.40
2022-09-27T14:06:09.271Z,14.10
2022-09-27T14:09:07.959Z,13.80
2022-09-27T14:12:09.223Z,13.80
2022-09-27T14:15:03.265Z,13.60
2022-09-27T14:17:57.872Z,13.50
2022-09-27T14:20:52.433Z,13.50
2022-09-27T14:23:44.592Z,13.40
2022-09-27T14:26:36.695Z,13.30
2022-09-27T14:29:39.116Z,13.30
2022-09-27T14:32:34.027Z,13.40
2022-09-27T14:35:49.436Z,13.40
2022-09-27T14:38:42.422Z,13.50
2022-09-27T14:41:39.449Z,13.40
2022-09-27T14:44:33.342Z,13.40
2022-09-27T14:47:27.770Z,13.40
2022-09-27T14:50:29.723Z,13.50
2022-09-27T14:53:24.083Z,13.40
2022-09-27T14:56:19.748Z,13.50
2022-09-27T14:59:17.337Z,13.50
2022-09-27T15:02:18.661Z,13.30
2022-09-27T15:05:16.592Z,13.30
2022-09-27T15:08:12.042Z,13.20
2022-09-27T15:11:06.409Z,13.10
2022-09-27T15:14:01.815Z,13.10
2022-09-27T15:16:54.366Z,13.10
2022-09-27T15:20:32.154Z,13.10
2022-09-27T15:23:45.398Z,13.00
2022-09-27T15:26:44.470Z,12.90
2022-09-27T15:29:36.993Z,12.80
2022-09-27T15:32:29.600Z,12.80
2022-09-27T15:35:27.524Z,12.80
2022-09-27T15:38:40.646Z,12.70
2022-09-27T15:42:07.867Z,12.50
2022-09-27T15:44:59.996Z,12.40
2022-09-27T15:47:52.204Z,12.40
2022-09-27T15:50:44.383Z,12.30
2022-09-27T15:53:36.559Z,12.20
2022-09-27T15:56:29.055Z,12.10
2022-09-27T15:59:30.046Z,12.00
2022-09-27T16:02:22.209Z,12.00
2022-09-27T16:05:14.504Z,11.90
2022-09-27T16:08:08.527Z,11.80
2022-09-27T16:11:03.278Z,11.70
2022-09-27T16:13:56.225Z,11.70
2022-09-27T16:16:54.421Z,11.60
2022-09-27T16:19:46.540Z,11.60
2022-09-27T16:22:38.669Z,11.60
2022-09-27T16:25:30.867Z,11.50
2022-09-27T16:28:22.996Z,11.60
2022-09-27T16:31:17.128Z,11.50
2022-09-27T16:34:10.395Z,11.50
2022-09-27T16:37:05.001Z,11.50
2022-09-27T16:39:57.410Z,11.50
2022-09-27T16:42:50.101Z,11.50
2022-09-27T16:45:42.359Z,11.50
2022-09-27T16:48:34.688Z,11.40
2022-09-27T16:51:45.494Z,11.40
2022-09-27T16:54:37.512Z,11.40
2022-09-27T16:57:29.967Z,11.40
2022-09-27T17:00:22.121Z,11.40
2022-09-27T17:03:14.371Z,11.40
2022-09-27T17:06:06.675Z,11.40
2022-09-27T17:09:03.054Z,11.40
2022-09-27T17:11:56.299Z,11.40
2022-09-27T17:14:48.479Z,11.40
2022-09-27T17:17:40.810Z,11.50
2022-09-27T17:20:33.054Z,11.50
2022-09-27T17:23:25.787Z,11.50
2022-09-27T17:26:21.015Z,11.50
2022-09-27T17:29:13.796Z,11.50
2022-09-27T17:32:08.629Z,11.50
2022-09-27T17:35:00.804Z,11.50
2022-09-27T17:37:52.945Z,11.40
2022-09-27T17:40:45.239Z,11.40
2022-09-27T17:43:50.022Z,11.40
2022-09-27T17:46:42.590Z,11.30
2022-09-27T17:49:53.314Z,11.40
2022-09-27T17:52:45.562Z,11.30
2022-09-27T17:55:37.717Z,11.30
2022-09-27T17:58:31.093Z,11.30
2022-09-27T18:01:25.607Z,11.30
2022-09-27T18:04:19.735Z,11.40
2022-09-27T18:07:14.662Z,11.40
2022-09-27T18:10:07.324Z,11.30
2022-09-27T18:12:59.447Z,11.40
2022-09-27T18:15:59.173Z,11.30
2022-09-27T18:18:51.913Z,11.30
2022-09-27T18:21:44.233Z,11.30
2022-09-27T18:24:36.392Z,11.30
2022-09-27T18:27:29.318Z,11.30
2022-09-27T18:30:21.720Z,11.30
2022-09-27T18:33:13.840Z,11.30
2022-09-27T18:36:20.717Z,11.40
2022-09-27T18:39:17.328Z,11.40
2022-09-27T18:42:09.503Z,11.40
2022-09-27T18:45:01.634Z,11.40
2022-09-27T18:47:53.766Z,11.40
2022-09-27T18:50:45.927Z,11.40
2022-09-27T18:53:39.278Z,11.50
2022-09-27T18:56:31.750Z,11.40
2022-09-27T18:59:24.091Z,11.40
2022-09-27T19:02:16.367Z,11.50
2022-09-27T19:05:09.400Z,11.40
2022-09-27T19:08:01.786Z,11.50
2022-09-27T19:10:53.921Z,11.40
2022-09-27T19:13:51.754Z,11.40
2022-09-27T19:16:46.991Z,11.50
2022-09-27T19:19:39.168Z,11.50
2022-09-27T19:22:31.297Z,11.50
2022-09-27T19:25:23.470Z,11.40
2022-09-27T19:28:16.087Z,11.50
2022-09-27T19:31:14.918Z,11.40
2022-09-27T19:34:07.172Z,11.40
2022-09-27T19:36:59.329Z,11.40
2022-09-27T19:39:55.340Z,11.40
2022-09-27T19:42:51.672Z,11.40
2022-09-27T19:45:43.752Z,11.40
2022-09-27T19:48:38.123Z,11.40
2022-09-27T19:51:31.040Z,11.40
2022-09-27T19:54:23.866Z,11.50
2022-09-27T19:57:16.222Z,11.60
2022-09-27T20:00:09.097Z,11.60
2022-09-27T20:03:01.216Z,11.70
2022-09-27T20:05:57.063Z,11.80
2022-09-27T20:08:49.762Z,11.80
2022-09-27T20:11:41.996Z,11.80
2022-09-27T20:14:34.146Z,11.90
2022-09-27T20:17:26.302Z,11.80
2022-09-27T20:20:18.434Z,11.70
2022-09-27T20:23:10.968Z,11.70
2022-09-27T20:26:08.083Z,11.70
2022-09-27T20:29:02.352Z,11.70
2022-09-27T20:32:15.852Z,11.70
2022-09-27T20:35:07.277Z,11.70
2022-09-27T20:37:59.370Z,11.70
2022-09-27T20:40:56.034Z,11.70
2022-09-27T20:43:52.533Z,11.60
2022-09-27T20:46:45.641Z,11.60
2022-09-27T20:49:37.851Z,11.60
2022-09-27T20:52:29.953Z,11.50
2022-09-27T20:55:22.045Z,11.60
2022-09-27T20:58:14.127Z,11.60
2022-09-27T21:01:07.236Z,11.60
2022-09-27T21:04:01.675Z,11.50
2022-09-27T21:06:53.911Z,11.50
2022-09-27T21:09:45.990Z,11.50
2022-09-27T21:12:38.124Z,11.40
2022-09-27T21:15:31.641Z,11.40
2022-09-27T21:18:23.743Z,11.30
2022-09-27T21:21:15.886Z,11.30
2022-09-27T21:24:08.068Z,11.20
2022-09-27T21:27:00.358Z,11.20
2022-09-27T21:29:52.501Z,11.20
2022-09-27T21:32:44.622Z,11.20
2022-09-27T21:35:37.230Z,11.10
2022-09-27T21:38:33.281Z,11.10
2022-09-27T21:41:26.455Z,11.00
2022-09-27T21:44:18.545Z,10.90
2022-09-27T21:47:12.462Z,10.90
2022-09-27T21:50:04.919Z,10.80
2022-09-27T21:52:58.211Z,10.80
2022-09-27T21:55:56.761Z,10.80
2022-09-27T21:58:49.675Z,10.70
2022-09-27T22:01:44.485Z,10.70
2022-09-27T22:04:36.765Z,10.60
2022-09-27T22:07:28.897Z,10.60
2022-09-27T22:10:21.032Z,10.60
2022-09-27T22:13:13.615Z,10.60
2022-09-27T22:16:08.462Z,10.60
2022-09-27T22:19:00.691Z,10.60
2022-09-27T22:21:52.799Z,10.60
2022-09-27T22:24:44.915Z,10.50
2022-09-27T22:27:37.033Z,10.40
2022-09-27T22:30:29.376Z,10.50
2022-09-27T22:33:21.540Z,10.40
2022-09-27T22:36:13.733Z,10.40
2022-09-27T22:39:06.240Z,10.40
2022-09-27T22:41:58.615Z,10.30
2022-09-27T22:44:50.748Z,10.30
2022-09-27T22:47:42.887Z,10.30
2022-09-27T22:50:35.006Z,10.20
2022-09-27T22:53:28.523Z,10.20
2022-09-27T22:56:21.115Z,10.10
2022-09-27T22:59:13.277Z,10.10
2022-09-27T23:02:05.407Z,10.10
2022-09-27T23:04:57.894Z,10.10
2022-09-27T23:07:51.201Z,10.10
2022-09-27T23:10:43.633Z,9.80
2022-09-27T23:13:38.323Z,9.70
2022-09-27T23:16:32.434Z,9.70
2022-09-27T23:19:26.888Z,9.40
2022-09-27T23:22:19.312Z,9.30
2022-09-27T23:25:11.415Z,9.30
2022-09-27T23:28:03.602Z,9.30
2022-09-27T23:30:55.878Z,9.30
2022-09-27T23:33:48.971Z,9.40
2022-09-27T23:36:41.060Z,9.40
2022-09-27T23:39:34.013Z,9.40
2022-09-27T23:42:27.060Z,9.40
2022-09-27T23:45:19.157Z,9.50
2022-09-27T23:48:12.912Z,9.40
2022-09-27T23:51:06.970Z,9.40
2022-09-27T23:53:59.484Z,9.30
2022-09-27T23:56:51.635Z,9.30
2022-09-27T23:59:43.791Z,9.20
